EGHI/SOU METAR and TAF weather

Enter ICAO airport designator
Station Type Date Time Source
EGHI METAR 2022/12/05 14:50 UTC NOAA

EGHI 051450Z 03006KT 360V060 9999 FEW020 BKN042 08/05 Q1022


Station Type Date Time Source
EGHI Decoded METAR 2022/12/05 14:50 UTC NOAA

Southampton / Weather Centre, United Kingdom (EGHI) 50-54N 001-24W 0M
Dec 05, 2022 - 09:50 AM EST / 2022.12.05 1450 UTC
Wind: from the NNE (030 degrees) at 7 MPH (6 KT) (direction variable):0
Visibility: greater than 7 mile(s):0
Sky conditions: mostly cloudy
Temperature: 46 F (8 C)
Dew Point: 41 F (5 C)
Relative Humidity: 81%
Pressure (altimeter): 30.18 in. Hg (1022 hPa)
ob: EGHI 051450Z 03006KT 360V060 9999 FEW020 BKN042 08/05 Q1022
cycle: 15

Station Type Date Time Source
EGHI TAF 2022/01/20 18:37 UTC NOAA

TAF EGHI 201729Z 2018/2123 CNL

Example: see airport list